sensor_id;sensor_type;location;lat;lon;timestamp;P1;durP1;ratioP1;P2;durP2;ratioP2
49978;SDS011;35869;50.990;6.962;2024-02-16T00:05:22;3.90;;;1.52;;
49978;SDS011;35869;50.990;6.962;2024-02-16T00:10:22;3.60;;;1.90;;
49978;SDS011;35869;50.990;6.962;2024-02-16T00:15:22;5.20;;;1.77;;
49978;SDS011;35869;50.990;6.962;2024-02-16T00:25:22;1.65;;;1.30;;
49978;SDS011;35869;50.990;6.962;2024-02-16T00:35:23;5.80;;;1.98;;
49978;SDS011;35869;50.990;6.962;2024-02-16T00:40:23;2.50;;;1.40;;
49978;SDS011;35869;50.990;6.962;2024-02-16T00:50:24;3.70;;;1.50;;
49978;SDS011;35869;50.990;6.962;2024-02-16T01:00:24;2.05;;;1.20;;
49978;SDS011;35869;50.990;6.962;2024-02-16T01:05:24;2.47;;;1.48;;
49978;SDS011;35869;50.990;6.962;2024-02-16T01:10:24;1.70;;;1.35;;
49978;SDS011;35869;50.990;6.962;2024-02-16T01:15:25;6.47;;;1.65;;
49978;SDS011;35869;50.990;6.962;2024-02-16T01:20:25;1.95;;;1.23;;
49978;SDS011;35869;50.990;6.962;2024-02-16T01:30:25;3.50;;;1.52;;
49978;SDS011;35869;50.990;6.962;2024-02-16T01:35:26;3.42;;;1.20;;
49978;SDS011;35869;50.990;6.962;2024-02-16T01:40:38;4.00;;;1.30;;
49978;SDS011;35869;50.990;6.962;2024-02-16T01:46:03;4.47;;;1.42;;
49978;SDS011;35869;50.990;6.962;2024-02-16T01:56:04;2.75;;;1.35;;
49978;SDS011;35869;50.990;6.962;2024-02-16T02:06:05;3.85;;;1.50;;
49978;SDS011;35869;50.990;6.962;2024-02-16T02:11:05;3.83;;;1.60;;
49978;SDS011;35869;50.990;6.962;2024-02-16T02:16:05;1.35;;;1.17;;
49978;SDS011;35869;50.990;6.962;2024-02-16T02:21:06;1.33;;;1.20;;
49978;SDS011;35869;50.990;6.962;2024-02-16T02:26:07;1.95;;;1.45;;
49978;SDS011;35869;50.990;6.962;2024-02-16T02:31:07;3.03;;;1.30;;
49978;SDS011;35869;50.990;6.962;2024-02-16T02:41:07;4.00;;;1.02;;
49978;SDS011;35869;50.990;6.962;2024-02-16T02:46:07;2.85;;;1.20;;
49978;SDS011;35869;50.990;6.962;2024-02-16T02:56:08;3.95;;;1.52;;
49978;SDS011;35869;50.990;6.962;2024-02-16T03:06:09;3.05;;;1.48;;
49978;SDS011;35869;50.990;6.962;2024-02-16T03:11:09;2.15;;;1.50;;
49978;SDS011;35869;50.990;6.962;2024-02-16T03:16:09;3.17;;;1.50;;
49978;SDS011;35869;50.990;6.962;2024-02-16T03:21:12;5.05;;;1.45;;
49978;SDS011;35869;50.990;6.962;2024-02-16T03:26:16;1.52;;;1.23;;
49978;SDS011;35869;50.990;6.962;2024-02-16T03:31:22;3.10;;;1.60;;
49978;SDS011;35869;50.990;6.962;2024-02-16T03:36:23;3.15;;;1.80;;
49978;SDS011;35869;50.990;6.962;2024-02-16T03:41:23;3.28;;;1.42;;
49978;SDS011;35869;50.990;6.962;2024-02-16T03:46:23;2.70;;;1.40;;
49978;SDS011;35869;50.990;6.962;2024-02-16T03:51:23;5.78;;;1.80;;
49978;SDS011;35869;50.990;6.962;2024-02-16T03:56:23;2.15;;;1.80;;
49978;SDS011;35869;50.990;6.962;2024-02-16T04:01:24;1.75;;;1.60;;
49978;SDS011;35869;50.990;6.962;2024-02-16T04:06:24;1.88;;;1.35;;
49978;SDS011;35869;50.990;6.962;2024-02-16T04:11:24;3.65;;;1.70;;
49978;SDS011;35869;50.990;6.962;2024-02-16T04:16:24;2.70;;;1.80;;
49978;SDS011;35869;50.990;6.962;2024-02-16T04:21:24;2.92;;;1.88;;
49978;SDS011;35869;50.990;6.962;2024-02-16T04:26:25;3.00;;;2.13;;
49978;SDS011;35869;50.990;6.962;2024-02-16T04:31:25;2.33;;;1.35;;
49978;SDS011;35869;50.990;6.962;2024-02-16T04:36:25;2.70;;;1.85;;
49978;SDS011;35869;50.990;6.962;2024-02-16T04:41:25;4.00;;;1.35;;
49978;SDS011;35869;50.990;6.962;2024-02-16T04:46:25;6.03;;;1.52;;
49978;SDS011;35869;50.990;6.962;2024-02-16T04:51:26;7.22;;;1.58;;
49978;SDS011;35869;50.990;6.962;2024-02-16T04:56:26;1.55;;;1.42;;
49978;SDS011;35869;50.990;6.962;2024-02-16T05:01:26;2.72;;;1.95;;
49978;SDS011;35869;50.990;6.962;2024-02-16T05:06:26;4.47;;;1.83;;
49978;SDS011;35869;50.990;6.962;2024-02-16T05:11:26;4.45;;;1.85;;
49978;SDS011;35869;50.990;6.962;2024-02-16T05:16:27;4.15;;;1.98;;
49978;SDS011;35869;50.990;6.962;2024-02-16T05:21:28;2.30;;;1.63;;
49978;SDS011;35869;50.990;6.962;2024-02-16T05:26:28;4.78;;;1.92;;
49978;SDS011;35869;50.990;6.962;2024-02-16T05:31:28;4.65;;;1.95;;
49978;SDS011;35869;50.990;6.962;2024-02-16T05:36:29;5.80;;;2.33;;
49978;SDS011;35869;50.990;6.962;2024-02-16T05:41:29;2.78;;;2.17;;
49978;SDS011;35869;50.990;6.962;2024-02-16T05:46:29;2.92;;;1.85;;
49978;SDS011;35869;50.990;6.962;2024-02-16T05:51:34;2.30;;;1.65;;
49978;SDS011;35869;50.990;6.962;2024-02-16T05:56:35;3.58;;;1.80;;
49978;SDS011;35869;50.990;6.962;2024-02-16T06:01:35;2.42;;;1.90;;
49978;SDS011;35869;50.990;6.962;2024-02-16T06:06:35;2.95;;;1.92;;
49978;SDS011;35869;50.990;6.962;2024-02-16T06:16:37;2.88;;;1.95;;
49978;SDS011;35869;50.990;6.962;2024-02-16T06:21:37;2.47;;;1.77;;
49978;SDS011;35869;50.990;6.962;2024-02-16T06:26:37;4.00;;;1.77;;
49978;SDS011;35869;50.990;6.962;2024-02-16T06:31:37;3.97;;;1.95;;
49978;SDS011;35869;50.990;6.962;2024-02-16T06:36:37;2.53;;;1.98;;
49978;SDS011;35869;50.990;6.962;2024-02-16T06:41:38;3.30;;;1.90;;
49978;SDS011;35869;50.990;6.962;2024-02-16T06:46:38;2.42;;;2.10;;
49978;SDS011;35869;50.990;6.962;2024-02-16T06:56:38;2.47;;;1.65;;
49978;SDS011;35869;50.990;6.962;2024-02-16T07:01:39;3.60;;;1.80;;
49978;SDS011;35869;50.990;6.962;2024-02-16T07:06:39;2.90;;;1.73;;
49978;SDS011;35869;50.990;6.962;2024-02-16T07:11:39;4.03;;;1.80;;
49978;SDS011;35869;50.990;6.962;2024-02-16T07:21:40;3.90;;;2.17;;
49978;SDS011;35869;50.990;6.962;2024-02-16T07:31:40;2.67;;;1.73;;
49978;SDS011;35869;50.990;6.962;2024-02-16T07:36:40;2.80;;;1.80;;
49978;SDS011;35869;50.990;6.962;2024-02-16T07:41:41;2.88;;;1.85;;
49978;SDS011;35869;50.990;6.962;2024-02-16T07:46:41;3.38;;;1.90;;
49978;SDS011;35869;50.990;6.962;2024-02-16T07:56:41;4.40;;;2.15;;
49978;SDS011;35869;50.990;6.962;2024-02-16T08:01:41;3.17;;;2.15;;
49978;SDS011;35869;50.990;6.962;2024-02-16T08:06:42;4.28;;;3.15;;
49978;SDS011;35869;50.990;6.962;2024-02-16T08:16:42;2.67;;;1.90;;
49978;SDS011;35869;50.990;6.962;2024-02-16T08:21:42;7.85;;;2.45;;
49978;SDS011;35869;50.990;6.962;2024-02-16T08:26:42;3.28;;;2.30;;
49978;SDS011;35869;50.990;6.962;2024-02-16T08:31:43;5.25;;;2.47;;
49978;SDS011;35869;50.990;6.962;2024-02-16T08:36:43;3.15;;;2.03;;
49978;SDS011;35869;50.990;6.962;2024-02-16T08:41:47;6.07;;;2.55;;
49978;SDS011;35869;50.990;6.962;2024-02-16T08:46:47;4.72;;;2.40;;
49978;SDS011;35869;50.990;6.962;2024-02-16T08:51:47;2.58;;;2.03;;
49978;SDS011;35869;50.990;6.962;2024-02-16T09:01:48;3.90;;;2.55;;
49978;SDS011;35869;50.990;6.962;2024-02-16T09:06:48;3.55;;;2.33;;
49978;SDS011;35869;50.990;6.962;2024-02-16T09:11:48;3.55;;;2.05;;
49978;SDS011;35869;50.990;6.962;2024-02-16T09:16:49;7.05;;;2.30;;
49978;SDS011;35869;50.990;6.962;2024-02-16T09:26:49;4.13;;;2.30;;
49978;SDS011;35869;50.990;6.962;2024-02-16T09:31:50;3.45;;;2.55;;
49978;SDS011;35869;50.990;6.962;2024-02-16T09:41:50;3.45;;;2.88;;
49978;SDS011;35869;50.990;6.962;2024-02-16T09:51:53;5.35;;;3.17;;
49978;SDS011;35869;50.990;6.962;2024-02-16T09:56:59;3.30;;;2.33;;
49978;SDS011;35869;50.990;6.962;2024-02-16T10:02:00;4.22;;;2.42;;
49978;SDS011;35869;50.990;6.962;2024-02-16T10:07:01;6.45;;;3.38;;
49978;SDS011;35869;50.990;6.962;2024-02-16T10:12:01;6.25;;;3.08;;
49978;SDS011;35869;50.990;6.962;2024-02-16T10:22:07;5.68;;;3.35;;
49978;SDS011;35869;50.990;6.962;2024-02-16T10:27:13;5.13;;;3.03;;
49978;SDS011;35869;50.990;6.962;2024-02-16T10:32:17;5.05;;;2.92;;
49978;SDS011;35869;50.990;6.962;2024-02-16T10:37:18;4.18;;;2.88;;
49978;SDS011;35869;50.990;6.962;2024-02-16T10:47:20;5.50;;;2.85;;
49978;SDS011;35869;50.990;6.962;2024-02-16T10:52:20;5.80;;;2.58;;
49978;SDS011;35869;50.990;6.962;2024-02-16T11:02:23;5.82;;;2.67;;
49978;SDS011;35869;50.990;6.962;2024-02-16T11:12:24;9.85;;;2.58;;
49978;SDS011;35869;50.990;6.962;2024-02-16T11:17:33;5.93;;;2.90;;
49978;SDS011;35869;50.990;6.962;2024-02-16T11:22:36;5.40;;;2.63;;
49978;SDS011;35869;50.990;6.962;2024-02-16T11:27:38;6.75;;;3.15;;
49978;SDS011;35869;50.990;6.962;2024-02-16T11:32:41;5.68;;;2.58;;
49978;SDS011;35869;50.990;6.962;2024-02-16T11:37:42;5.25;;;2.75;;
49978;SDS011;35869;50.990;6.962;2024-02-16T11:47:43;7.85;;;2.88;;
49978;SDS011;35869;50.990;6.962;2024-02-16T11:52:46;4.90;;;3.42;;
49978;SDS011;35869;50.990;6.962;2024-02-16T11:57:47;4.45;;;3.13;;
49978;SDS011;35869;50.990;6.962;2024-02-16T12:02:47;15.10;;;3.38;;
49978;SDS011;35869;50.990;6.962;2024-02-16T12:07:47;10.77;;;3.42;;
49978;SDS011;35869;50.990;6.962;2024-02-16T12:12:47;4.13;;;3.10;;
49978;SDS011;35869;50.990;6.962;2024-02-16T12:17:57;5.82;;;2.95;;
49978;SDS011;35869;50.990;6.962;2024-02-16T12:22:58;5.07;;;2.83;;
49978;SDS011;35869;50.990;6.962;2024-02-16T12:27:58;7.53;;;3.30;;
49978;SDS011;35869;50.990;6.962;2024-02-16T12:32:58;9.20;;;4.20;;
49978;SDS011;35869;50.990;6.962;2024-02-16T12:37:59;8.97;;;3.87;;
49978;SDS011;35869;50.990;6.962;2024-02-16T12:42:59;14.67;;;9.03;;
49978;SDS011;35869;50.990;6.962;2024-02-16T12:47:59;7.22;;;4.78;;
49978;SDS011;35869;50.990;6.962;2024-02-16T12:52:59;6.50;;;4.43;;
49978;SDS011;35869;50.990;6.962;2024-02-16T12:57:59;7.47;;;4.27;;
49978;SDS011;35869;50.990;6.962;2024-02-16T13:03:00;10.37;;;4.73;;
49978;SDS011;35869;50.990;6.962;2024-02-16T13:08:00;11.60;;;5.83;;
49978;SDS011;35869;50.990;6.962;2024-02-16T13:13:00;12.07;;;6.30;;
49978;SDS011;35869;50.990;6.962;2024-02-16T13:18:00;12.20;;;7.13;;
49978;SDS011;35869;50.990;6.962;2024-02-16T13:23:01;12.90;;;7.38;;
49978;SDS011;35869;50.990;6.962;2024-02-16T13:33:02;13.30;;;5.75;;
49978;SDS011;35869;50.990;6.962;2024-02-16T13:38:02;13.05;;;6.30;;
49978;SDS011;35869;50.990;6.962;2024-02-16T13:43:03;10.95;;;6.40;;
49978;SDS011;35869;50.990;6.962;2024-02-16T13:48:08;8.97;;;7.07;;
49978;SDS011;35869;50.990;6.962;2024-02-16T13:53:09;9.13;;;6.10;;
49978;SDS011;35869;50.990;6.962;2024-02-16T13:58:10;6.05;;;5.22;;
49978;SDS011;35869;50.990;6.962;2024-02-16T14:03:11;9.32;;;6.00;;
49978;SDS011;35869;50.990;6.962;2024-02-16T14:08:13;9.70;;;6.30;;
49978;SDS011;35869;50.990;6.962;2024-02-16T14:13:14;9.02;;;6.70;;
49978;SDS011;35869;50.990;6.962;2024-02-16T14:18:14;9.33;;;6.67;;
49978;SDS011;35869;50.990;6.962;2024-02-16T14:23:14;13.27;;;7.00;;
49978;SDS011;35869;50.990;6.962;2024-02-16T14:28:14;11.07;;;6.73;;
49978;SDS011;35869;50.990;6.962;2024-02-16T14:33:16;11.13;;;7.45;;
49978;SDS011;35869;50.990;6.962;2024-02-16T14:38:16;11.48;;;7.38;;
49978;SDS011;35869;50.990;6.962;2024-02-16T14:43:16;8.98;;;6.78;;
49978;SDS011;35869;50.990;6.962;2024-02-16T14:48:17;9.60;;;6.77;;
49978;SDS011;35869;50.990;6.962;2024-02-16T14:53:17;8.87;;;6.63;;
49978;SDS011;35869;50.990;6.962;2024-02-16T14:58:17;10.67;;;8.50;;
49978;SDS011;35869;50.990;6.962;2024-02-16T15:08:18;10.38;;;8.80;;
49978;SDS011;35869;50.990;6.962;2024-02-16T15:13:18;12.13;;;10.00;;
49978;SDS011;35869;50.990;6.962;2024-02-16T15:18:18;9.13;;;7.83;;
49978;SDS011;35869;50.990;6.962;2024-02-16T15:23:18;11.40;;;9.40;;
49978;SDS011;35869;50.990;6.962;2024-02-16T15:28:18;11.23;;;9.13;;
49978;SDS011;35869;50.990;6.962;2024-02-16T15:33:19;9.43;;;7.70;;
49978;SDS011;35869;50.990;6.962;2024-02-16T15:38:19;12.80;;;9.27;;
49978;SDS011;35869;50.990;6.962;2024-02-16T15:43:19;13.63;;;8.80;;
49978;SDS011;35869;50.990;6.962;2024-02-16T15:48:19;8.07;;;7.18;;
49978;SDS011;35869;50.990;6.962;2024-02-16T15:53:19;8.85;;;7.95;;
49978;SDS011;35869;50.990;6.962;2024-02-16T15:58:20;9.57;;;6.07;;
49978;SDS011;35869;50.990;6.962;2024-02-16T16:03:20;6.70;;;6.10;;
49978;SDS011;35869;50.990;6.962;2024-02-16T16:08:20;8.50;;;7.07;;
49978;SDS011;35869;50.990;6.962;2024-02-16T16:13:20;6.93;;;6.30;;
49978;SDS011;35869;50.990;6.962;2024-02-16T16:18:20;6.35;;;5.85;;
49978;SDS011;35869;50.990;6.962;2024-02-16T16:23:21;6.18;;;5.60;;
49978;SDS011;35869;50.990;6.962;2024-02-16T16:28:21;7.45;;;5.25;;
49978;SDS011;35869;50.990;6.962;2024-02-16T16:33:21;5.73;;;5.00;;
49978;SDS011;35869;50.990;6.962;2024-02-16T16:38:21;5.60;;;5.00;;
49978;SDS011;35869;50.990;6.962;2024-02-16T16:43:22;7.33;;;5.33;;
49978;SDS011;35869;50.990;6.962;2024-02-16T16:53:22;8.00;;;5.43;;
49978;SDS011;35869;50.990;6.962;2024-02-16T16:58:22;7.50;;;5.78;;
49978;SDS011;35869;50.990;6.962;2024-02-16T17:03:22;5.95;;;5.35;;
49978;SDS011;35869;50.990;6.962;2024-02-16T17:08:23;6.30;;;5.73;;
49978;SDS011;35869;50.990;6.962;2024-02-16T17:13:23;7.15;;;5.63;;
49978;SDS011;35869;50.990;6.962;2024-02-16T17:18:23;7.37;;;6.23;;
49978;SDS011;35869;50.990;6.962;2024-02-16T17:23:23;7.60;;;6.65;;
49978;SDS011;35869;50.990;6.962;2024-02-16T17:28:24;8.15;;;6.72;;
49978;SDS011;35869;50.990;6.962;2024-02-16T17:33:24;7.90;;;7.10;;
49978;SDS011;35869;50.990;6.962;2024-02-16T17:38:25;9.17;;;7.37;;
49978;SDS011;35869;50.990;6.962;2024-02-16T17:43:25;8.37;;;7.00;;
49978;SDS011;35869;50.990;6.962;2024-02-16T17:48:25;8.55;;;7.50;;
49978;SDS011;35869;50.990;6.962;2024-02-16T17:53:25;11.57;;;8.00;;
49978;SDS011;35869;50.990;6.962;2024-02-16T17:58:26;8.07;;;7.28;;
49978;SDS011;35869;50.990;6.962;2024-02-16T18:03:26;9.05;;;8.15;;
49978;SDS011;35869;50.990;6.962;2024-02-16T18:08:26;9.90;;;8.90;;
49978;SDS011;35869;50.990;6.962;2024-02-16T18:13:26;10.20;;;8.63;;
49978;SDS011;35869;50.990;6.962;2024-02-16T18:18:26;12.67;;;9.23;;
49978;SDS011;35869;50.990;6.962;2024-02-16T18:23:27;12.55;;;9.80;;
49978;SDS011;35869;50.990;6.962;2024-02-16T18:28:27;11.00;;;9.68;;
49978;SDS011;35869;50.990;6.962;2024-02-16T18:33:27;12.27;;;10.90;;
49978;SDS011;35869;50.990;6.962;2024-02-16T18:38:27;12.60;;;11.30;;
49978;SDS011;35869;50.990;6.962;2024-02-16T18:48:28;16.50;;;14.32;;
49978;SDS011;35869;50.990;6.962;2024-02-16T18:53:28;17.77;;;14.35;;
49978;SDS011;35869;50.990;6.962;2024-02-16T18:58:28;18.17;;;13.40;;
49978;SDS011;35869;50.990;6.962;2024-02-16T19:08:29;20.45;;;14.68;;
49978;SDS011;35869;50.990;6.962;2024-02-16T19:13:29;17.70;;;13.45;;
49978;SDS011;35869;50.990;6.962;2024-02-16T19:18:30;19.00;;;13.60;;
49978;SDS011;35869;50.990;6.962;2024-02-16T19:23:30;16.98;;;12.70;;
49978;SDS011;35869;50.990;6.962;2024-02-16T19:28:31;12.65;;;11.30;;
49978;SDS011;35869;50.990;6.962;2024-02-16T19:33:31;14.98;;;11.05;;
49978;SDS011;35869;50.990;6.962;2024-02-16T19:38:31;13.98;;;10.32;;
49978;SDS011;35869;50.990;6.962;2024-02-16T19:43:31;13.38;;;11.88;;
49978;SDS011;35869;50.990;6.962;2024-02-16T19:53:32;16.35;;;10.98;;
49978;SDS011;35869;50.990;6.962;2024-02-16T19:58:32;14.13;;;11.43;;
49978;SDS011;35869;50.990;6.962;2024-02-16T20:03:32;13.85;;;11.15;;
49978;SDS011;35869;50.990;6.962;2024-02-16T20:08:32;12.18;;;10.52;;
49978;SDS011;35869;50.990;6.962;2024-02-16T20:13:33;11.23;;;9.70;;
49978;SDS011;35869;50.990;6.962;2024-02-16T20:23:33;11.85;;;10.45;;
49978;SDS011;35869;50.990;6.962;2024-02-16T20:28:34;10.75;;;9.52;;
49978;SDS011;35869;50.990;6.962;2024-02-16T20:38:35;9.15;;;8.05;;
49978;SDS011;35869;50.990;6.962;2024-02-16T20:43:35;11.82;;;8.85;;
49978;SDS011;35869;50.990;6.962;2024-02-16T20:53:36;8.73;;;7.53;;
49978;SDS011;35869;50.990;6.962;2024-02-16T20:58:36;8.15;;;7.35;;
49978;SDS011;35869;50.990;6.962;2024-02-16T21:03:36;11.05;;;8.52;;
49978;SDS011;35869;50.990;6.962;2024-02-16T21:08:37;13.05;;;8.07;;
49978;SDS011;35869;50.990;6.962;2024-02-16T21:13:37;10.75;;;8.43;;
49978;SDS011;35869;50.990;6.962;2024-02-16T21:18:37;10.70;;;7.88;;
49978;SDS011;35869;50.990;6.962;2024-02-16T21:28:38;15.98;;;11.88;;
49978;SDS011;35869;50.990;6.962;2024-02-16T21:33:38;18.33;;;13.35;;
49978;SDS011;35869;50.990;6.962;2024-02-16T21:38:38;20.40;;;14.40;;
49978;SDS011;35869;50.990;6.962;2024-02-16T21:43:38;20.40;;;14.20;;
49978;SDS011;35869;50.990;6.962;2024-02-16T21:48:38;20.13;;;15.98;;
49978;SDS011;35869;50.990;6.962;2024-02-16T21:53:39;17.88;;;14.30;;
49978;SDS011;35869;50.990;6.962;2024-02-16T21:58:39;20.92;;;15.48;;
49978;SDS011;35869;50.990;6.962;2024-02-16T22:03:39;18.48;;;14.10;;
49978;SDS011;35869;50.990;6.962;2024-02-16T22:08:39;21.35;;;14.80;;
49978;SDS011;35869;50.990;6.962;2024-02-16T22:13:39;22.83;;;15.77;;
49978;SDS011;35869;50.990;6.962;2024-02-16T22:18:40;19.90;;;13.27;;
49978;SDS011;35869;50.990;6.962;2024-02-16T22:23:41;22.55;;;15.63;;
49978;SDS011;35869;50.990;6.962;2024-02-16T22:28:41;24.52;;;16.98;;
49978;SDS011;35869;50.990;6.962;2024-02-16T22:38:42;22.15;;;15.73;;
49978;SDS011;35869;50.990;6.962;2024-02-16T22:43:42;21.83;;;15.73;;
49978;SDS011;35869;50.990;6.962;2024-02-16T22:48:42;23.38;;;14.88;;
49978;SDS011;35869;50.990;6.962;2024-02-16T22:53:42;19.02;;;14.18;;
49978;SDS011;35869;50.990;6.962;2024-02-16T22:58:43;18.40;;;12.85;;
49978;SDS011;35869;50.990;6.962;2024-02-16T23:03:43;16.38;;;12.20;;
49978;SDS011;35869;50.990;6.962;2024-02-16T23:08:43;18.38;;;12.30;;
49978;SDS011;35869;50.990;6.962;2024-02-16T23:18:43;16.98;;;12.05;;
49978;SDS011;35869;50.990;6.962;2024-02-16T23:23:44;18.40;;;11.20;;
49978;SDS011;35869;50.990;6.962;2024-02-16T23:28:44;23.70;;;13.15;;
49978;SDS011;35869;50.990;6.962;2024-02-16T23:33:44;17.95;;;13.35;;
49978;SDS011;35869;50.990;6.962;2024-02-16T23:38:44;20.58;;;13.80;;
49978;SDS011;35869;50.990;6.962;2024-02-16T23:43:45;20.25;;;13.93;;
49978;SDS011;35869;50.990;6.962;2024-02-16T23:48:45;19.55;;;14.02;;
49978;SDS011;35869;50.990;6.962;2024-02-16T23:53:45;22.67;;;14.68;;
49978;SDS011;35869;50.990;6.962;2024-02-16T23:58:45;25.17;;;15.02;;
